createdAt,value
2022-10-18T00:02:35.269Z,100800.00
2022-10-18T00:05:23.084Z,100791.00
2022-10-18T00:08:11.049Z,100784.25
2022-10-18T00:10:58.925Z,100784.47
2022-10-18T00:13:46.896Z,100776.75
2022-10-18T00:16:34.705Z,100771.81
2022-10-18T00:19:25.894Z,100763.06
2022-10-18T00:22:16.581Z,100763.06
2022-10-18T00:25:05.782Z,100766.94
2022-10-18T00:27:53.646Z,100770.88
2022-10-18T00:30:41.774Z,100760.88
2022-10-18T00:33:29.812Z,100753.72
2022-10-18T00:36:18.570Z,100758.88
2022-10-18T00:39:08.262Z,100755.41
2022-10-18T00:41:56.169Z,100754.50
2022-10-18T00:44:43.901Z,100775.81
2022-10-18T00:47:33.063Z,100776.94
2022-10-18T00:50:22.578Z,100776.53
2022-10-18T00:53:16.728Z,100768.03
2022-10-18T00:56:04.928Z,100753.66
2022-10-18T00:58:53.227Z,100765.34
2022-10-18T01:01:41.214Z,100768.53
2022-10-18T01:04:29.323Z,100762.41
2022-10-18T01:07:26.328Z,100758.34
2022-10-18T01:10:19.951Z,100761.25
2022-10-18T01:13:13.724Z,100756.63
2022-10-18T01:16:39.423Z,100744.97
2022-10-18T01:19:47.489Z,100750.56
2022-10-18T01:22:39.465Z,100753.16
2022-10-18T01:25:57.504Z,100745.97
2022-10-18T01:29:42.127Z,100744.50
2022-10-18T01:32:41.484Z,100735.31
2022-10-18T01:35:37.652Z,100745.59
2022-10-18T01:38:26.513Z,100740.22
2022-10-18T01:41:17.297Z,100734.31
2022-10-18T01:44:08.761Z,100733.34
2022-10-18T01:46:58.311Z,100729.47
2022-10-18T01:49:46.719Z,100733.22
2022-10-18T01:52:34.785Z,100725.53
2022-10-18T01:55:33.693Z,100734.47
2022-10-18T01:58:33.117Z,100733.09
2022-10-18T02:01:42.973Z,100732.56
2022-10-18T02:05:04.218Z,100727.56
2022-10-18T02:08:12.218Z,100718.63
2022-10-18T02:11:16.167Z,100723.50
2022-10-18T02:14:09.692Z,100722.38
2022-10-18T02:17:00.755Z,100725.41
2022-10-18T02:19:54.863Z,100726.53
2022-10-18T02:22:45.937Z,100726.19
2022-10-18T02:25:35.728Z,100717.78
2022-10-18T02:31:39.744Z,100706.94
2022-10-18T02:34:40.607Z,100704.09
2022-10-18T02:37:35.207Z,100705.03
2022-10-18T02:40:23.464Z,100710.63
2022-10-18T02:43:11.268Z,100719.75
2022-10-18T02:45:59.190Z,100712.50
2022-10-18T02:48:47.232Z,100715.03
2022-10-18T02:51:35.103Z,100720.41
2022-10-18T02:54:23.680Z,100718.94
2022-10-18T02:57:11.463Z,100716.00
2022-10-18T02:59:59.327Z,100715.72
2022-10-18T03:02:47.181Z,100704.56
2022-10-18T03:05:35.028Z,100711.28
2022-10-18T03:08:22.934Z,100712.88
2022-10-18T03:11:10.936Z,100709.88
2022-10-18T03:13:58.739Z,100711.00
2022-10-18T03:16:46.570Z,100719.56
2022-10-18T03:19:34.405Z,100719.94
2022-10-18T03:22:22.314Z,100723.66
2022-10-18T03:25:10.128Z,100721.25
2022-10-18T03:27:57.896Z,100755.69
2022-10-18T03:30:45.805Z,100778.16
2022-10-18T03:33:34.050Z,100825.53
2022-10-18T03:36:22.065Z,100786.38
2022-10-18T03:39:12.575Z,100787.16
2022-10-18T03:42:00.507Z,100783.75
2022-10-18T03:44:48.460Z,100778.50
2022-10-18T03:47:36.403Z,100766.19
2022-10-18T03:50:24.467Z,100738.09
2022-10-18T03:53:12.589Z,100749.13
2022-10-18T03:56:00.404Z,100736.53
2022-10-18T03:58:48.298Z,100741.97
2022-10-18T04:01:36.252Z,100742.28
2022-10-18T04:04:24.209Z,100745.84
2022-10-18T04:07:12.029Z,100747.38
2022-10-18T04:10:00.462Z,100755.75
2022-10-18T04:12:48.516Z,100753.22
2022-10-18T04:15:36.397Z,100745.00
2022-10-18T04:18:24.276Z,100746.38
2022-10-18T04:21:12.082Z,100749.22
2022-10-18T04:23:59.968Z,100743.66
2022-10-18T04:26:48.033Z,100750.31
2022-10-18T04:29:36.271Z,100758.09
2022-10-18T04:32:24.168Z,100772.69
2022-10-18T04:35:12.037Z,100785.91
2022-10-18T04:37:59.858Z,100802.53
2022-10-18T04:40:47.690Z,100784.81
2022-10-18T04:43:35.611Z,100776.59
2022-10-18T04:46:23.573Z,100787.78
2022-10-18T04:49:11.457Z,100787.63
2022-10-18T04:51:59.415Z,100775.63
2022-10-18T04:54:47.498Z,100773.97
2022-10-18T04:57:35.428Z,100784.50
2022-10-18T05:00:23.574Z,100784.97
2022-10-18T05:03:13.982Z,100788.56
2022-10-18T05:06:02.831Z,100782.78
2022-10-18T05:08:51.340Z,100777.91
2022-10-18T05:11:41.987Z,100776.22
2022-10-18T05:14:29.779Z,100780.19
2022-10-18T05:17:17.655Z,100782.31
2022-10-18T05:20:06.110Z,100776.88
2022-10-18T05:22:53.983Z,100776.88
2022-10-18T05:25:43.089Z,100763.56
2022-10-18T05:28:39.669Z,100758.56
2022-10-18T05:31:28.645Z,100763.56
2022-10-18T05:34:18.068Z,100754.09
2022-10-18T05:37:06.990Z,100751.59
2022-10-18T05:40:00.584Z,100743.97
2022-10-18T05:42:52.152Z,100753.44
2022-10-18T05:45:40.181Z,100739.19
2022-10-18T05:48:28.446Z,100740.25
2022-10-18T05:51:16.342Z,100745.50
2022-10-18T05:54:06.764Z,100747.03
2022-10-18T05:56:54.838Z,100729.63
2022-10-18T05:59:43.735Z,100741.25
2022-10-18T06:02:31.929Z,100746.88
2022-10-18T06:05:20.065Z,100745.28
2022-10-18T06:08:10.271Z,100739.09
2022-10-18T06:10:58.441Z,100756.41
2022-10-18T06:13:55.052Z,100780.00
2022-10-18T06:16:42.891Z,100802.22
2022-10-18T06:19:41.368Z,100808.03
2022-10-18T06:22:34.226Z,100782.38
2022-10-18T06:25:22.569Z,100784.53
2022-10-18T06:28:12.184Z,100785.69
2022-10-18T06:31:00.390Z,100797.25
2022-10-18T06:33:49.575Z,100786.63
2022-10-18T06:36:37.434Z,100775.22
2022-10-18T06:39:26.087Z,100781.09
2022-10-18T06:42:14.798Z,100780.00
2022-10-18T06:45:05.667Z,100786.97
2022-10-18T06:47:53.540Z,100787.84
2022-10-18T06:50:41.647Z,100804.19
2022-10-18T06:53:32.913Z,100810.34
2022-10-18T06:56:21.024Z,100818.03
2022-10-18T06:59:11.662Z,100821.75
2022-10-18T07:02:01.750Z,100819.22
2022-10-18T07:04:50.164Z,100826.72
2022-10-18T07:07:39.693Z,100832.06
2022-10-18T07:10:34.089Z,100844.56
2022-10-18T07:13:37.830Z,100844.13
2022-10-18T07:16:25.845Z,100834.91
2022-10-18T07:19:15.242Z,100820.88
2022-10-18T07:22:03.157Z,100826.41
2022-10-18T07:24:51.213Z,100830.34
2022-10-18T07:27:41.388Z,100835.00
2022-10-18T07:30:29.297Z,100833.75
2022-10-18T07:33:17.399Z,100837.72
2022-10-18T07:36:10.039Z,100835.28
2022-10-18T07:38:58.563Z,100847.84
2022-10-18T07:41:47.842Z,100850.63
2022-10-18T07:44:39.456Z,100851.88
2022-10-18T07:47:32.806Z,100848.31
2022-10-18T07:50:26.385Z,100866.31
2022-10-18T07:53:14.582Z,100859.53
2022-10-18T07:56:11.729Z,100851.31
2022-10-18T07:58:59.800Z,100845.41
2022-10-18T08:01:48.174Z,100846.19
2022-10-18T08:04:36.084Z,100848.59
2022-10-18T08:07:24.145Z,100847.66
2022-10-18T08:10:12.153Z,100849.16
2022-10-18T08:13:00.213Z,100855.91
2022-10-18T08:15:48.473Z,100864.34
2022-10-18T08:18:37.846Z,100866.50
2022-10-18T08:21:27.075Z,100868.34
2022-10-18T08:24:15.080Z,100862.06
2022-10-18T08:27:03.718Z,100865.66
2022-10-18T08:29:52.053Z,100860.75
2022-10-18T08:32:40.354Z,100866.31
2022-10-18T08:35:28.518Z,100884.78
2022-10-18T08:38:18.882Z,100882.25
2022-10-18T08:41:57.943Z,100880.69
2022-10-18T08:44:49.729Z,100875.56
2022-10-18T08:47:49.384Z,100881.53
2022-10-18T08:50:38.784Z,100882.47
2022-10-18T08:53:43.567Z,100881.78
2022-10-18T08:56:33.631Z,100887.50
2022-10-18T08:59:24.731Z,100880.44
2022-10-18T09:02:31.113Z,100887.69
2022-10-18T09:05:32.407Z,100893.56
2022-10-18T09:08:35.986Z,100888.63
2022-10-18T09:11:35.681Z,100882.16
2022-10-18T09:14:53.308Z,100893.22
2022-10-18T09:18:17.699Z,100894.34
2022-10-18T09:21:24.461Z,100899.44
2022-10-18T09:26:37.657Z,100895.53
2022-10-18T09:29:38.696Z,100910.59
2022-10-18T09:32:47.511Z,100900.28
2022-10-18T09:36:45.145Z,100904.63
2022-10-18T09:40:23.583Z,100896.97
2022-10-18T10:24:43.690Z,100934.88
2022-10-18T10:28:30.256Z,100933.25
2022-10-18T10:31:40.006Z,100928.97
2022-10-18T10:35:04.797Z,100934.22
2022-10-18T10:41:52.874Z,100941.03
2022-10-18T10:50:21.844Z,100950.22
2022-10-18T11:00:56.631Z,100954.34
2022-10-18T11:03:55.911Z,100935.19
2022-10-18T11:09:32.228Z,100958.22
2022-10-18T13:12:35.525Z,100899.97
2022-10-18T16:42:48.514Z,100919.53
2022-10-18T16:48:46.427Z,100939.09
2022-10-18T16:51:44.915Z,100928.28
2022-10-18T16:54:38.665Z,100932.13
2022-10-18T16:57:34.775Z,100935.78
2022-10-18T17:00:24.961Z,100932.94
2022-10-18T17:03:25.315Z,100944.38
2022-10-18T17:06:24.487Z,100961.22
2022-10-18T17:09:20.243Z,100950.66
2022-10-18T17:12:14.814Z,100961.84
2022-10-18T17:15:51.096Z,100969.19
2022-10-18T17:18:54.818Z,100974.00
2022-10-18T17:24:48.494Z,100984.53
2022-10-18T17:27:36.953Z,100976.31
2022-10-18T17:30:29.928Z,100976.03
2022-10-18T17:33:20.384Z,100977.75
2022-10-18T17:36:35.908Z,100985.50
2022-10-18T17:39:32.428Z,100987.53
2022-10-18T17:42:23.921Z,100988.47
2022-10-18T17:45:12.818Z,100984.56
2022-10-18T17:48:05.651Z,100993.91
2022-10-18T17:50:56.342Z,100990.28
2022-10-18T17:54:11.990Z,100985.66
2022-10-18T17:57:24.688Z,100984.41
2022-10-18T18:00:50.700Z,100995.44
2022-10-18T18:04:08.926Z,100999.47
2022-10-18T18:07:23.152Z,101001.28
2022-10-18T18:10:25.136Z,100997.09
2022-10-18T18:13:30.103Z,100996.53
2022-10-18T18:16:29.567Z,101003.22
2022-10-18T18:19:21.588Z,100997.13
2022-10-18T18:22:26.167Z,101001.75
2022-10-18T18:25:16.754Z,101005.66
2022-10-18T18:28:47.599Z,100996.31
2022-10-18T18:31:41.255Z,101004.91
2022-10-18T18:34:36.110Z,101002.31
2022-10-18T18:37:24.441Z,100986.09
2022-10-18T18:40:18.481Z,100986.56
2022-10-18T18:43:35.828Z,100977.97
2022-10-18T18:46:40.811Z,100989.94
2022-10-18T18:49:32.615Z,100989.56
2022-10-18T18:52:28.289Z,100993.94
2022-10-18T18:55:22.278Z,100991.66
2022-10-18T18:58:16.088Z,100988.38
2022-10-18T19:01:19.706Z,100980.50
2022-10-18T19:04:17.755Z,101004.97
2022-10-18T19:07:14.296Z,100994.09
2022-10-18T19:10:06.221Z,101004.75
2022-10-18T19:12:55.698Z,100992.13
2022-10-18T19:15:50.113Z,100997.72
2022-10-18T19:18:38.628Z,100991.97
2022-10-18T19:21:34.127Z,100999.41
2022-10-18T19:24:25.707Z,100997.31
2022-10-18T19:27:24.570Z,100994.13
2022-10-18T19:30:16.300Z,100996.34
2022-10-18T19:33:15.558Z,101002.00
2022-10-18T19:36:18.620Z,100979.97
2022-10-18T19:39:13.346Z,100996.72
2022-10-18T19:42:06.488Z,100982.03
2022-10-18T19:44:57.439Z,100996.66
2022-10-18T19:47:49.756Z,100985.31
2022-10-18T19:50:38.333Z,100986.16
2022-10-18T19:53:34.383Z,100993.84
2022-10-18T19:56:55.011Z,100990.75
2022-10-18T19:59:57.039Z,100994.19
2022-10-18T20:02:50.787Z,100990.03
2022-10-18T20:05:45.961Z,101006.47
2022-10-18T20:08:44.227Z,101004.00
2022-10-18T20:11:49.274Z,101006.94
2022-10-18T20:14:37.638Z,101018.59
2022-10-18T20:17:45.748Z,101002.28
2022-10-18T20:20:43.342Z,101001.44
2022-10-18T20:23:40.599Z,101015.88
2022-10-18T20:26:29.024Z,101006.72
2022-10-18T20:29:18.779Z,101014.03
2022-10-18T20:32:14.023Z,101015.31
2022-10-18T20:35:02.794Z,100994.28
2022-10-18T20:37:51.138Z,101002.06
2022-10-18T20:40:39.998Z,101005.53
2022-10-18T20:43:31.426Z,101005.47
2022-10-18T20:46:21.616Z,101004.13
2022-10-18T20:49:16.392Z,101008.47
2022-10-18T20:52:05.484Z,101006.72
2022-10-18T20:54:54.413Z,101003.47
2022-10-18T20:57:45.038Z,101006.59
2022-10-18T21:00:36.455Z,101010.56
2022-10-18T21:03:24.960Z,101008.59
2022-10-18T21:06:18.774Z,101013.13
2022-10-18T21:09:18.947Z,101017.09
2022-10-18T21:12:07.226Z,101016.03
2022-10-18T21:14:55.670Z,101014.81
2022-10-18T21:17:52.730Z,101015.66
2022-10-18T21:20:41.067Z,101018.25
2022-10-18T21:23:29.158Z,101018.22
2022-10-18T21:26:27.077Z,101015.09
2022-10-18T21:29:21.578Z,101019.13
2022-10-18T21:32:18.304Z,101006.31
2022-10-18T21:35:07.197Z,101012.00
2022-10-18T21:37:55.720Z,101009.56
2022-10-18T21:40:49.204Z,101005.56
2022-10-18T21:43:44.982Z,101007.88
2022-10-18T21:46:33.377Z,101000.97
2022-10-18T21:49:25.275Z,101009.00
2022-10-18T21:52:15.862Z,101003.66
2022-10-18T21:55:08.036Z,100998.53
2022-10-18T21:57:56.362Z,100998.16
2022-10-18T22:00:47.465Z,101001.63
2022-10-18T22:03:40.226Z,100997.06
2022-10-18T22:09:30.099Z,100998.84
2022-10-18T22:12:18.485Z,100997.97
2022-10-18T22:15:10.078Z,101000.75
2022-10-18T22:18:05.432Z,100995.50
2022-10-18T22:21:04.245Z,100998.06
2022-10-18T22:24:05.355Z,100999.31
2022-10-18T22:26:59.323Z,100991.72
2022-10-18T22:29:47.607Z,100994.63
2022-10-18T22:32:43.099Z,100996.63
2022-10-18T22:35:34.694Z,100997.31
2022-10-18T22:38:23.363Z,100995.19
2022-10-18T22:41:12.846Z,100995.75
2022-10-18T22:44:03.532Z,100988.94
2022-10-18T22:47:00.281Z,100985.59
2022-10-18T22:49:48.611Z,100986.47
2022-10-18T22:52:36.844Z,100979.31
2022-10-18T22:55:38.074Z,100981.69
2022-10-18T22:58:26.768Z,100986.13
2022-10-18T23:01:22.154Z,100991.72
2022-10-18T23:04:17.952Z,100985.78
2022-10-18T23:07:06.600Z,100988.56
2022-10-18T23:09:55.498Z,100980.75
2022-10-18T23:12:44.527Z,100986.56
2022-10-18T23:15:34.232Z,100989.44
2022-10-18T23:18:25.455Z,100995.69
2022-10-18T23:21:17.500Z,100997.34
2022-10-18T23:24:09.321Z,100994.47
2022-10-18T23:26:57.646Z,101003.81
2022-10-18T23:29:46.577Z,101000.91
2022-10-18T23:32:35.839Z,100992.31
2022-10-18T23:35:33.304Z,101002.66
2022-10-18T23:38:26.146Z,100999.53
2022-10-18T23:41:17.269Z,100990.47
2022-10-18T23:44:11.424Z,100989.34
2022-10-18T23:47:07.963Z,100999.78
2022-10-18T23:50:03.141Z,100991.66
2022-10-18T23:52:55.088Z,101001.56
2022-10-18T23:56:01.221Z,101001.44
2022-10-18T23:58:53.152Z,100998.09
